sensor_id;sensor_type;location;lat;lon;timestamp;P1;durP1;ratioP1;P2;durP2;ratioP2
7971;SDS011;4031;49.758;6.120;2022-07-22T00:00:13;12.60;;;8.83;;
7971;SDS011;4031;49.758;6.120;2022-07-22T00:02:40;21.53;;;10.33;;
7971;SDS011;4031;49.758;6.120;2022-07-22T00:05:06;18.47;;;11.40;;
7971;SDS011;4031;49.758;6.120;2022-07-22T00:07:33;18.47;;;10.77;;
7971;SDS011;4031;49.758;6.120;2022-07-22T00:09:59;18.47;;;10.70;;
7971;SDS011;4031;49.758;6.120;2022-07-22T00:12:25;17.13;;;10.67;;
7971;SDS011;4031;49.758;6.120;2022-07-22T00:14:51;16.27;;;10.53;;
7971;SDS011;4031;49.758;6.120;2022-07-22T00:17:16;16.33;;;10.87;;
7971;SDS011;4031;49.758;6.120;2022-07-22T00:19:42;13.00;;;9.43;;
7971;SDS011;4031;49.758;6.120;2022-07-22T00:22:08;17.47;;;11.40;;
7971;SDS011;4031;49.758;6.120;2022-07-22T00:24:34;16.40;;;11.37;;
7971;SDS011;4031;49.758;6.120;2022-07-22T00:27:00;21.23;;;11.27;;
7971;SDS011;4031;49.758;6.120;2022-07-22T00:29:25;15.23;;;10.43;;
7971;SDS011;4031;49.758;6.120;2022-07-22T00:31:51;15.57;;;11.90;;
7971;SDS011;4031;49.758;6.120;2022-07-22T00:34:17;16.23;;;10.70;;
7971;SDS011;4031;49.758;6.120;2022-07-22T00:36:43;19.07;;;11.17;;
7971;SDS011;4031;49.758;6.120;2022-07-22T00:39:08;19.20;;;12.67;;
7971;SDS011;4031;49.758;6.120;2022-07-22T00:41:34;20.23;;;12.10;;
7971;SDS011;4031;49.758;6.120;2022-07-22T00:44:01;17.10;;;11.97;;
7971;SDS011;4031;49.758;6.120;2022-07-22T00:46:30;24.13;;;13.27;;
7971;SDS011;4031;49.758;6.120;2022-07-22T00:48:57;20.00;;;12.40;;
7971;SDS011;4031;49.758;6.120;2022-07-22T00:51:25;17.50;;;12.77;;
7971;SDS011;4031;49.758;6.120;2022-07-22T00:53:53;18.00;;;11.70;;
7971;SDS011;4031;49.758;6.120;2022-07-22T00:56:21;18.00;;;12.30;;
7971;SDS011;4031;49.758;6.120;2022-07-22T00:58:49;20.33;;;11.67;;
7971;SDS011;4031;49.758;6.120;2022-07-22T01:01:16;19.27;;;11.10;;
7971;SDS011;4031;49.758;6.120;2022-07-22T01:03:42;19.10;;;12.37;;
7971;SDS011;4031;49.758;6.120;2022-07-22T01:06:08;17.13;;;11.67;;
7971;SDS011;4031;49.758;6.120;2022-07-22T01:08:35;15.80;;;11.03;;
7971;SDS011;4031;49.758;6.120;2022-07-22T01:11:21;20.03;;;13.07;;
7971;SDS011;4031;49.758;6.120;2022-07-22T01:13:47;19.20;;;11.80;;
7971;SDS011;4031;49.758;6.120;2022-07-22T01:16:14;22.90;;;13.07;;
7971;SDS011;4031;49.758;6.120;2022-07-22T01:18:42;21.73;;;12.70;;
7971;SDS011;4031;49.758;6.120;2022-07-22T01:21:09;22.10;;;13.27;;
7971;SDS011;4031;49.758;6.120;2022-07-22T01:23:36;16.50;;;12.17;;
7971;SDS011;4031;49.758;6.120;2022-07-22T01:26:03;22.10;;;14.30;;
7971;SDS011;4031;49.758;6.120;2022-07-22T01:28:30;25.27;;;14.17;;
7971;SDS011;4031;49.758;6.120;2022-07-22T01:30:56;20.67;;;12.77;;
7971;SDS011;4031;49.758;6.120;2022-07-22T01:33:22;20.20;;;13.93;;
7971;SDS011;4031;49.758;6.120;2022-07-22T01:35:49;23.60;;;14.00;;
7971;SDS011;4031;49.758;6.120;2022-07-22T01:38:16;21.17;;;14.80;;
7971;SDS011;4031;49.758;6.120;2022-07-22T01:40:43;20.57;;;12.73;;
7971;SDS011;4031;49.758;6.120;2022-07-22T01:43:10;24.63;;;14.17;;
7971;SDS011;4031;49.758;6.120;2022-07-22T01:45:36;18.20;;;11.80;;
7971;SDS011;4031;49.758;6.120;2022-07-22T01:48:02;18.60;;;12.70;;
7971;SDS011;4031;49.758;6.120;2022-07-22T01:50:29;18.53;;;12.87;;
7971;SDS011;4031;49.758;6.120;2022-07-22T01:52:55;19.27;;;13.70;;
7971;SDS011;4031;49.758;6.120;2022-07-22T01:55:21;20.13;;;12.57;;
7971;SDS011;4031;49.758;6.120;2022-07-22T01:57:47;21.80;;;12.90;;
7971;SDS011;4031;49.758;6.120;2022-07-22T02:00:13;22.37;;;12.70;;
7971;SDS011;4031;49.758;6.120;2022-07-22T02:02:39;19.63;;;11.93;;
7971;SDS011;4031;49.758;6.120;2022-07-22T02:05:05;19.93;;;11.90;;
7971;SDS011;4031;49.758;6.120;2022-07-22T02:07:32;25.10;;;12.50;;
7971;SDS011;4031;49.758;6.120;2022-07-22T02:09:58;20.73;;;12.70;;
7971;SDS011;4031;49.758;6.120;2022-07-22T02:12:25;19.07;;;12.37;;
7971;SDS011;4031;49.758;6.120;2022-07-22T02:14:51;18.60;;;13.40;;
7971;SDS011;4031;49.758;6.120;2022-07-22T02:17:17;17.30;;;12.50;;
7971;SDS011;4031;49.758;6.120;2022-07-22T02:19:42;17.87;;;12.23;;
7971;SDS011;4031;49.758;6.120;2022-07-22T02:22:08;24.20;;;13.47;;
7971;SDS011;4031;49.758;6.120;2022-07-22T02:24:34;19.07;;;12.50;;
7971;SDS011;4031;49.758;6.120;2022-07-22T02:27:00;22.93;;;13.53;;
7971;SDS011;4031;49.758;6.120;2022-07-22T02:29:26;24.03;;;12.47;;
7971;SDS011;4031;49.758;6.120;2022-07-22T02:31:52;25.07;;;14.50;;
7971;SDS011;4031;49.758;6.120;2022-07-22T02:34:18;27.97;;;15.43;;
7971;SDS011;4031;49.758;6.120;2022-07-22T02:36:44;25.47;;;13.90;;
7971;SDS011;4031;49.758;6.120;2022-07-22T02:39:10;30.10;;;15.10;;
7971;SDS011;4031;49.758;6.120;2022-07-22T02:41:35;16.50;;;12.23;;
7971;SDS011;4031;49.758;6.120;2022-07-22T02:44:01;23.10;;;12.33;;
7971;SDS011;4031;49.758;6.120;2022-07-22T02:46:27;23.60;;;13.20;;
7971;SDS011;4031;49.758;6.120;2022-07-22T02:48:55;24.17;;;13.70;;
7971;SDS011;4031;49.758;6.120;2022-07-22T02:51:22;22.63;;;12.93;;
7971;SDS011;4031;49.758;6.120;2022-07-22T02:53:48;23.60;;;12.40;;
7971;SDS011;4031;49.758;6.120;2022-07-22T02:56:14;23.07;;;13.10;;
7971;SDS011;4031;49.758;6.120;2022-07-22T02:58:40;25.13;;;14.77;;
7971;SDS011;4031;49.758;6.120;2022-07-22T03:01:06;26.17;;;12.90;;
7971;SDS011;4031;49.758;6.120;2022-07-22T03:03:32;20.03;;;13.07;;
7971;SDS011;4031;49.758;6.120;2022-07-22T03:05:58;25.77;;;12.80;;
7971;SDS011;4031;49.758;6.120;2022-07-22T03:08:24;23.47;;;14.70;;
7971;SDS011;4031;49.758;6.120;2022-07-22T03:10:50;23.97;;;13.90;;
7971;SDS011;4031;49.758;6.120;2022-07-22T03:13:16;21.97;;;13.37;;
7971;SDS011;4031;49.758;6.120;2022-07-22T03:15:42;23.67;;;12.93;;
7971;SDS011;4031;49.758;6.120;2022-07-22T03:18:08;27.40;;;12.80;;
7971;SDS011;4031;49.758;6.120;2022-07-22T03:20:34;23.57;;;13.23;;
7971;SDS011;4031;49.758;6.120;2022-07-22T03:23:01;24.20;;;14.17;;
7971;SDS011;4031;49.758;6.120;2022-07-22T03:25:27;23.00;;;13.90;;
7971;SDS011;4031;49.758;6.120;2022-07-22T03:27:53;25.60;;;13.50;;
7971;SDS011;4031;49.758;6.120;2022-07-22T03:30:19;20.33;;;13.07;;
7971;SDS011;4031;49.758;6.120;2022-07-22T03:32:45;21.03;;;12.90;;
7971;SDS011;4031;49.758;6.120;2022-07-22T03:35:12;20.10;;;12.60;;
7971;SDS011;4031;49.758;6.120;2022-07-22T03:37:39;25.53;;;13.60;;
7971;SDS011;4031;49.758;6.120;2022-07-22T03:40:05;20.67;;;11.90;;
7971;SDS011;4031;49.758;6.120;2022-07-22T03:42:32;23.33;;;12.43;;
7971;SDS011;4031;49.758;6.120;2022-07-22T03:44:58;24.17;;;13.80;;
7971;SDS011;4031;49.758;6.120;2022-07-22T03:47:24;21.87;;;11.67;;
7971;SDS011;4031;49.758;6.120;2022-07-22T03:49:50;22.53;;;12.40;;
7971;SDS011;4031;49.758;6.120;2022-07-22T03:52:16;16.17;;;11.00;;
7971;SDS011;4031;49.758;6.120;2022-07-22T03:54:42;18.60;;;12.23;;
7971;SDS011;4031;49.758;6.120;2022-07-22T03:57:08;18.37;;;11.40;;
7971;SDS011;4031;49.758;6.120;2022-07-22T03:59:34;17.40;;;12.53;;
7971;SDS011;4031;49.758;6.120;2022-07-22T04:02:00;25.40;;;12.57;;
7971;SDS011;4031;49.758;6.120;2022-07-22T04:04:27;28.07;;;13.63;;
7971;SDS011;4031;49.758;6.120;2022-07-22T04:06:53;30.00;;;12.50;;
7971;SDS011;4031;49.758;6.120;2022-07-22T04:09:19;22.27;;;11.57;;
7971;SDS011;4031;49.758;6.120;2022-07-22T04:11:45;21.10;;;11.07;;
7971;SDS011;4031;49.758;6.120;2022-07-22T04:14:11;22.40;;;11.47;;
7971;SDS011;4031;49.758;6.120;2022-07-22T04:16:37;25.23;;;11.73;;
7971;SDS011;4031;49.758;6.120;2022-07-22T04:19:03;20.10;;;12.47;;
7971;SDS011;4031;49.758;6.120;2022-07-22T04:21:29;17.23;;;11.50;;
7971;SDS011;4031;49.758;6.120;2022-07-22T04:23:55;19.10;;;11.33;;
7971;SDS011;4031;49.758;6.120;2022-07-22T04:26:21;20.57;;;12.63;;
7971;SDS011;4031;49.758;6.120;2022-07-22T04:28:47;24.37;;;13.20;;
7971;SDS011;4031;49.758;6.120;2022-07-22T04:31:13;28.77;;;14.00;;
7971;SDS011;4031;49.758;6.120;2022-07-22T04:33:38;25.77;;;11.90;;
7971;SDS011;4031;49.758;6.120;2022-07-22T04:36:04;29.10;;;14.90;;
7971;SDS011;4031;49.758;6.120;2022-07-22T04:38:30;29.77;;;14.50;;
7971;SDS011;4031;49.758;6.120;2022-07-22T04:40:56;24.03;;;12.77;;
7971;SDS011;4031;49.758;6.120;2022-07-22T04:43:22;30.50;;;15.70;;
7971;SDS011;4031;49.758;6.120;2022-07-22T04:45:48;31.60;;;14.73;;
7971;SDS011;4031;49.758;6.120;2022-07-22T04:48:15;31.33;;;14.40;;
7971;SDS011;4031;49.758;6.120;2022-07-22T04:50:41;27.63;;;15.90;;
7971;SDS011;4031;49.758;6.120;2022-07-22T04:53:07;29.90;;;14.83;;
7971;SDS011;4031;49.758;6.120;2022-07-22T04:55:33;33.63;;;15.87;;
7971;SDS011;4031;49.758;6.120;2022-07-22T04:57:58;25.10;;;14.27;;
7971;SDS011;4031;49.758;6.120;2022-07-22T05:00:24;29.33;;;17.23;;
7971;SDS011;4031;49.758;6.120;2022-07-22T05:02:50;24.80;;;14.70;;
7971;SDS011;4031;49.758;6.120;2022-07-22T05:05:16;28.70;;;15.83;;
7971;SDS011;4031;49.758;6.120;2022-07-22T05:07:42;31.97;;;15.23;;
7971;SDS011;4031;49.758;6.120;2022-07-22T05:10:08;28.20;;;14.27;;
7971;SDS011;4031;49.758;6.120;2022-07-22T05:12:34;22.73;;;13.37;;
7971;SDS011;4031;49.758;6.120;2022-07-22T05:15:00;21.93;;;13.70;;
7971;SDS011;4031;49.758;6.120;2022-07-22T05:17:27;26.60;;;13.97;;
7971;SDS011;4031;49.758;6.120;2022-07-22T05:19:53;26.17;;;14.20;;
7971;SDS011;4031;49.758;6.120;2022-07-22T05:22:19;22.63;;;13.93;;
7971;SDS011;4031;49.758;6.120;2022-07-22T05:24:44;24.00;;;14.30;;
7971;SDS011;4031;49.758;6.120;2022-07-22T05:27:10;25.50;;;14.50;;
7971;SDS011;4031;49.758;6.120;2022-07-22T05:29:36;24.53;;;13.07;;
7971;SDS011;4031;49.758;6.120;2022-07-22T05:32:02;26.60;;;15.20;;
7971;SDS011;4031;49.758;6.120;2022-07-22T05:34:28;22.60;;;14.67;;
7971;SDS011;4031;49.758;6.120;2022-07-22T05:36:54;27.67;;;13.60;;
7971;SDS011;4031;49.758;6.120;2022-07-22T05:39:19;29.07;;;12.37;;
7971;SDS011;4031;49.758;6.120;2022-07-22T05:41:45;18.10;;;10.53;;
7971;SDS011;4031;49.758;6.120;2022-07-22T05:44:11;16.90;;;10.10;;
7971;SDS011;4031;49.758;6.120;2022-07-22T05:46:37;17.67;;;10.17;;
7971;SDS011;4031;49.758;6.120;2022-07-22T05:49:02;18.73;;;10.53;;
7971;SDS011;4031;49.758;6.120;2022-07-22T05:51:28;10.50;;;8.33;;
7971;SDS011;4031;49.758;6.120;2022-07-22T05:53:54;14.77;;;9.63;;
7971;SDS011;4031;49.758;6.120;2022-07-22T05:56:20;15.10;;;9.13;;
7971;SDS011;4031;49.758;6.120;2022-07-22T05:58:45;11.63;;;7.83;;
7971;SDS011;4031;49.758;6.120;2022-07-22T06:01:11;11.30;;;7.23;;
7971;SDS011;4031;49.758;6.120;2022-07-22T06:03:38;9.40;;;7.23;;
7971;SDS011;4031;49.758;6.120;2022-07-22T06:06:04;11.23;;;6.87;;
7971;SDS011;4031;49.758;6.120;2022-07-22T06:08:33;10.13;;;7.00;;
7971;SDS011;4031;49.758;6.120;2022-07-22T06:11:00;7.83;;;7.03;;
7971;SDS011;4031;49.758;6.120;2022-07-22T06:13:26;9.43;;;6.10;;
7971;SDS011;4031;49.758;6.120;2022-07-22T06:15:53;8.40;;;5.97;;
7971;SDS011;4031;49.758;6.120;2022-07-22T06:18:18;6.70;;;5.47;;
7971;SDS011;4031;49.758;6.120;2022-07-22T06:20:44;10.07;;;6.50;;
7971;SDS011;4031;49.758;6.120;2022-07-22T06:23:10;7.83;;;6.03;;
7971;SDS011;4031;49.758;6.120;2022-07-22T06:25:36;5.93;;;4.73;;
7971;SDS011;4031;49.758;6.120;2022-07-22T06:28:02;5.47;;;4.60;;
7971;SDS011;4031;49.758;6.120;2022-07-22T06:30:27;6.97;;;4.67;;
7971;SDS011;4031;49.758;6.120;2022-07-22T06:32:53;7.10;;;4.67;;
7971;SDS011;4031;49.758;6.120;2022-07-22T06:35:19;6.67;;;4.30;;
7971;SDS011;4031;49.758;6.120;2022-07-22T06:37:45;5.87;;;4.73;;
7971;SDS011;4031;49.758;6.120;2022-07-22T06:40:11;4.63;;;3.90;;
7971;SDS011;4031;49.758;6.120;2022-07-22T06:42:37;5.97;;;4.20;;
7971;SDS011;4031;49.758;6.120;2022-07-22T06:45:04;7.37;;;4.70;;
7971;SDS011;4031;49.758;6.120;2022-07-22T06:47:30;5.70;;;4.30;;
7971;SDS011;4031;49.758;6.120;2022-07-22T06:50:00;6.37;;;5.10;;
7971;SDS011;4031;49.758;6.120;2022-07-22T06:52:28;4.43;;;4.03;;
7971;SDS011;4031;49.758;6.120;2022-07-22T06:54:53;6.30;;;4.10;;
7971;SDS011;4031;49.758;6.120;2022-07-22T06:57:19;8.87;;;4.60;;
7971;SDS011;4031;49.758;6.120;2022-07-22T06:59:45;5.70;;;4.20;;
7971;SDS011;4031;49.758;6.120;2022-07-22T07:02:11;6.30;;;4.70;;
7971;SDS011;4031;49.758;6.120;2022-07-22T07:04:36;4.47;;;4.07;;
7971;SDS011;4031;49.758;6.120;2022-07-22T07:07:02;5.23;;;4.70;;
7971;SDS011;4031;49.758;6.120;2022-07-22T07:09:28;4.90;;;4.40;;
7971;SDS011;4031;49.758;6.120;2022-07-22T07:11:54;5.40;;;4.90;;
7971;SDS011;4031;49.758;6.120;2022-07-22T07:14:20;5.10;;;4.60;;
7971;SDS011;4031;49.758;6.120;2022-07-22T07:16:46;5.23;;;3.70;;
7971;SDS011;4031;49.758;6.120;2022-07-22T07:19:12;5.40;;;4.90;;
7971;SDS011;4031;49.758;6.120;2022-07-22T07:21:38;6.17;;;4.80;;
7971;SDS011;4031;49.758;6.120;2022-07-22T07:24:04;5.37;;;4.80;;
7971;SDS011;4031;49.758;6.120;2022-07-22T07:26:30;4.77;;;4.33;;
7971;SDS011;4031;49.758;6.120;2022-07-22T07:28:56;6.17;;;4.43;;
7971;SDS011;4031;49.758;6.120;2022-07-22T07:31:22;4.37;;;3.90;;
7971;SDS011;4031;49.758;6.120;2022-07-22T07:33:48;5.20;;;4.50;;
7971;SDS011;4031;49.758;6.120;2022-07-22T07:36:13;5.63;;;5.03;;
7971;SDS011;4031;49.758;6.120;2022-07-22T07:38:39;5.33;;;4.13;;
7971;SDS011;4031;49.758;6.120;2022-07-22T07:41:07;5.23;;;4.70;;
7971;SDS011;4031;49.758;6.120;2022-07-22T07:43:33;5.23;;;4.47;;
7971;SDS011;4031;49.758;6.120;2022-07-22T07:45:58;6.00;;;4.23;;
7971;SDS011;4031;49.758;6.120;2022-07-22T07:48:24;4.87;;;4.20;;
7971;SDS011;4031;49.758;6.120;2022-07-22T07:50:50;4.93;;;4.03;;
7971;SDS011;4031;49.758;6.120;2022-07-22T07:53:16;5.03;;;4.50;;
7971;SDS011;4031;49.758;6.120;2022-07-22T07:55:42;4.33;;;4.03;;
7971;SDS011;4031;49.758;6.120;2022-07-22T07:58:07;10.47;;;4.53;;
7971;SDS011;4031;49.758;6.120;2022-07-22T08:00:33;5.20;;;4.13;;
7971;SDS011;4031;49.758;6.120;2022-07-22T08:03:01;4.87;;;4.47;;
7971;SDS011;4031;49.758;6.120;2022-07-22T08:05:28;4.27;;;3.87;;
7971;SDS011;4031;49.758;6.120;2022-07-22T08:07:54;4.73;;;4.20;;
7971;SDS011;4031;49.758;6.120;2022-07-22T08:10:20;6.40;;;4.33;;
7971;SDS011;4031;49.758;6.120;2022-07-22T08:12:47;4.37;;;3.97;;
7971;SDS011;4031;49.758;6.120;2022-07-22T08:15:13;8.87;;;4.07;;
7971;SDS011;4031;49.758;6.120;2022-07-22T08:17:39;5.93;;;4.40;;
7971;SDS011;4031;49.758;6.120;2022-07-22T08:20:06;6.70;;;4.30;;
7971;SDS011;4031;49.758;6.120;2022-07-22T08:22:33;4.77;;;3.90;;
7971;SDS011;4031;49.758;6.120;2022-07-22T08:24:59;5.43;;;4.93;;
7971;SDS011;4031;49.758;6.120;2022-07-22T08:27:25;4.07;;;3.77;;
7971;SDS011;4031;49.758;6.120;2022-07-22T08:29:51;5.70;;;4.43;;
7971;SDS011;4031;49.758;6.120;2022-07-22T08:32:17;5.13;;;3.83;;
7971;SDS011;4031;49.758;6.120;2022-07-22T08:34:43;4.50;;;4.10;;
7971;SDS011;4031;49.758;6.120;2022-07-22T08:37:08;3.83;;;3.33;;
7971;SDS011;4031;49.758;6.120;2022-07-22T08:39:35;4.90;;;4.17;;
7971;SDS011;4031;49.758;6.120;2022-07-22T08:42:01;4.47;;;3.80;;
7971;SDS011;4031;49.758;6.120;2022-07-22T08:44:31;5.07;;;4.60;;
7971;SDS011;4031;49.758;6.120;2022-07-22T08:46:58;4.33;;;3.83;;
7971;SDS011;4031;49.758;6.120;2022-07-22T08:49:25;4.80;;;4.10;;
7971;SDS011;4031;49.758;6.120;2022-07-22T08:51:51;3.83;;;3.03;;
7971;SDS011;4031;49.758;6.120;2022-07-22T08:54:17;4.33;;;3.93;;
7971;SDS011;4031;49.758;6.120;2022-07-22T08:56:46;3.83;;;3.53;;
7971;SDS011;4031;49.758;6.120;2022-07-22T08:59:16;4.40;;;3.57;;
7971;SDS011;4031;49.758;6.120;2022-07-22T09:04:32;4.00;;;3.30;;
7971;SDS011;4031;49.758;6.120;2022-07-22T09:07:29;4.27;;;3.67;;
7971;SDS011;4031;49.758;6.120;2022-07-22T09:09:59;3.23;;;2.83;;
7971;SDS011;4031;49.758;6.120;2022-07-22T09:12:26;3.63;;;3.33;;
7971;SDS011;4031;49.758;6.120;2022-07-22T09:14:55;3.67;;;3.37;;
7971;SDS011;4031;49.758;6.120;2022-07-22T09:17:24;3.70;;;3.40;;
7971;SDS011;4031;49.758;6.120;2022-07-22T09:20:01;4.23;;;3.10;;
7971;SDS011;4031;49.758;6.120;2022-07-22T09:22:44;3.50;;;2.43;;
7971;SDS011;4031;49.758;6.120;2022-07-22T09:30:34;3.20;;;3.00;;
7971;SDS011;4031;49.758;6.120;2022-07-22T09:33:20;3.50;;;3.20;;
7971;SDS011;4031;49.758;6.120;2022-07-22T09:35:47;4.17;;;3.60;;
7971;SDS011;4031;49.758;6.120;2022-07-22T09:38:15;3.57;;;3.23;;
7971;SDS011;4031;49.758;6.120;2022-07-22T09:40:44;3.53;;;3.23;;
7971;SDS011;4031;49.758;6.120;2022-07-22T09:43:12;4.70;;;2.73;;
7971;SDS011;4031;49.758;6.120;2022-07-22T09:45:49;3.40;;;3.00;;
7971;SDS011;4031;49.758;6.120;2022-07-22T09:48:24;3.40;;;3.10;;
7971;SDS011;4031;49.758;6.120;2022-07-22T09:50:51;3.50;;;3.20;;
7971;SDS011;4031;49.758;6.120;2022-07-22T09:53:20;7.13;;;3.00;;
7971;SDS011;4031;49.758;6.120;2022-07-22T09:55:48;3.87;;;3.30;;
7971;SDS011;4031;49.758;6.120;2022-07-22T09:58:14;3.77;;;3.20;;
7971;SDS011;4031;49.758;6.120;2022-07-22T10:00:41;4.60;;;3.43;;
7971;SDS011;4031;49.758;6.120;2022-07-22T10:03:12;4.80;;;4.40;;
7971;SDS011;4031;49.758;6.120;2022-07-22T10:05:43;4.50;;;3.13;;
7971;SDS011;4031;49.758;6.120;2022-07-22T10:08:10;4.60;;;3.43;;
7971;SDS011;4031;49.758;6.120;2022-07-22T10:10:36;4.40;;;2.90;;
7971;SDS011;4031;49.758;6.120;2022-07-22T10:13:04;3.43;;;3.13;;
7971;SDS011;4031;49.758;6.120;2022-07-22T10:15:32;4.37;;;3.70;;
7971;SDS011;4031;49.758;6.120;2022-07-22T10:18:00;3.30;;;2.93;;
7971;SDS011;4031;49.758;6.120;2022-07-22T10:20:31;4.93;;;4.20;;
7971;SDS011;4031;49.758;6.120;2022-07-22T10:23:03;5.10;;;3.33;;
7971;SDS011;4031;49.758;6.120;2022-07-22T10:25:32;4.40;;;3.80;;
7971;SDS011;4031;49.758;6.120;2022-07-22T10:28:48;3.60;;;3.30;;
7971;SDS011;4031;49.758;6.120;2022-07-22T10:33:43;3.70;;;3.40;;
7971;SDS011;4031;49.758;6.120;2022-07-22T10:36:13;4.10;;;3.70;;
7971;SDS011;4031;49.758;6.120;2022-07-22T10:38:40;4.00;;;3.50;;
7971;SDS011;4031;49.758;6.120;2022-07-22T10:41:40;4.67;;;4.13;;
7971;SDS011;4031;49.758;6.120;2022-07-22T10:44:09;4.27;;;3.87;;
7971;SDS011;4031;49.758;6.120;2022-07-22T10:46:49;4.17;;;3.77;;
7971;SDS011;4031;49.758;6.120;2022-07-22T10:49:21;5.10;;;3.47;;
7971;SDS011;4031;49.758;6.120;2022-07-22T10:52:08;5.53;;;3.40;;
7971;SDS011;4031;49.758;6.120;2022-07-22T10:57:46;4.33;;;3.80;;
7971;SDS011;4031;49.758;6.120;2022-07-22T11:00:14;4.20;;;3.77;;
7971;SDS011;4031;49.758;6.120;2022-07-22T11:02:39;3.83;;;3.53;;
7971;SDS011;4031;49.758;6.120;2022-07-22T11:05:06;4.20;;;3.80;;
7971;SDS011;4031;49.758;6.120;2022-07-22T11:07:33;4.27;;;3.90;;
7971;SDS011;4031;49.758;6.120;2022-07-22T11:10:09;4.10;;;3.70;;
7971;SDS011;4031;49.758;6.120;2022-07-22T11:12:43;4.87;;;4.37;;
7971;SDS011;4031;49.758;6.120;2022-07-22T11:15:11;4.37;;;4.00;;
7971;SDS011;4031;49.758;6.120;2022-07-22T11:17:37;4.67;;;4.27;;
7971;SDS011;4031;49.758;6.120;2022-07-22T11:20:04;4.67;;;4.23;;
7971;SDS011;4031;49.758;6.120;2022-07-22T11:22:33;4.87;;;4.47;;
7971;SDS011;4031;49.758;6.120;2022-07-22T11:25:00;5.20;;;4.20;;
7971;SDS011;4031;49.758;6.120;2022-07-22T11:27:31;4.20;;;3.80;;
7971;SDS011;4031;49.758;6.120;2022-07-22T11:29:57;4.53;;;3.97;;
7971;SDS011;4031;49.758;6.120;2022-07-22T11:32:24;4.90;;;4.50;;
7971;SDS011;4031;49.758;6.120;2022-07-22T11:34:56;5.10;;;4.60;;
7971;SDS011;4031;49.758;6.120;2022-07-22T11:37:24;5.50;;;4.57;;
7971;SDS011;4031;49.758;6.120;2022-07-22T11:39:58;4.40;;;4.00;;
7971;SDS011;4031;49.758;6.120;2022-07-22T11:42:26;5.30;;;4.63;;
7971;SDS011;4031;49.758;6.120;2022-07-22T11:44:52;5.00;;;4.60;;
7971;SDS011;4031;49.758;6.120;2022-07-22T11:47:18;4.27;;;3.97;;
7971;SDS011;4031;49.758;6.120;2022-07-22T11:49:45;4.20;;;3.90;;
7971;SDS011;4031;49.758;6.120;2022-07-22T11:52:14;4.37;;;3.97;;
7971;SDS011;4031;49.758;6.120;2022-07-22T11:54:41;5.33;;;4.40;;
7971;SDS011;4031;49.758;6.120;2022-07-22T11:57:08;5.30;;;4.70;;
7971;SDS011;4031;49.758;6.120;2022-07-22T11:59:34;5.80;;;4.30;;
7971;SDS011;4031;49.758;6.120;2022-07-22T12:02:00;5.00;;;4.60;;
7971;SDS011;4031;49.758;6.120;2022-07-22T12:04:28;5.20;;;4.70;;
7971;SDS011;4031;49.758;6.120;2022-07-22T12:06:58;4.80;;;4.40;;
7971;SDS011;4031;49.758;6.120;2022-07-22T12:09:31;6.17;;;4.70;;
7971;SDS011;4031;49.758;6.120;2022-07-22T12:12:00;4.70;;;4.23;;
7971;SDS011;4031;49.758;6.120;2022-07-22T12:14:30;5.00;;;4.50;;
7971;SDS011;4031;49.758;6.120;2022-07-22T12:17:07;6.00;;;5.03;;
7971;SDS011;4031;49.758;6.120;2022-07-22T12:19:35;4.83;;;4.50;;
7971;SDS011;4031;49.758;6.120;2022-07-22T12:24:43;5.27;;;4.83;;
7971;SDS011;4031;49.758;6.120;2022-07-22T12:27:12;5.07;;;4.67;;
7971;SDS011;4031;49.758;6.120;2022-07-22T12:29:41;5.60;;;5.10;;
7971;SDS011;4031;49.758;6.120;2022-07-22T12:32:10;5.20;;;4.70;;
7971;SDS011;4031;49.758;6.120;2022-07-22T12:42:18;5.20;;;4.80;;
7971;SDS011;4031;49.758;6.120;2022-07-22T12:44:50;4.97;;;4.47;;
7971;SDS011;4031;49.758;6.120;2022-07-22T12:47:52;5.23;;;4.83;;
7971;SDS011;4031;49.758;6.120;2022-07-22T12:50:27;5.23;;;4.77;;
7971;SDS011;4031;49.758;6.120;2022-07-22T12:52:54;4.77;;;4.30;;
7971;SDS011;4031;49.758;6.120;2022-07-22T12:55:27;4.47;;;4.07;;
7971;SDS011;4031;49.758;6.120;2022-07-22T12:57:54;5.67;;;4.60;;
7971;SDS011;4031;49.758;6.120;2022-07-22T13:00:21;4.93;;;4.53;;
7971;SDS011;4031;49.758;6.120;2022-07-22T13:02:50;4.53;;;4.13;;
7971;SDS011;4031;49.758;6.120;2022-07-22T13:05:17;5.43;;;4.87;;
7971;SDS011;4031;49.758;6.120;2022-07-22T13:07:43;4.37;;;3.97;;
7971;SDS011;4031;49.758;6.120;2022-07-22T13:10:10;9.50;;;5.30;;
7971;SDS011;4031;49.758;6.120;2022-07-22T13:12:37;5.87;;;5.13;;
7971;SDS011;4031;49.758;6.120;2022-07-22T13:15:04;5.10;;;4.70;;
7971;SDS011;4031;49.758;6.120;2022-07-22T13:17:30;5.93;;;5.17;;
7971;SDS011;4031;49.758;6.120;2022-07-22T13:19:56;5.27;;;4.77;;
7971;SDS011;4031;49.758;6.120;2022-07-22T13:22:22;4.83;;;4.43;;
7971;SDS011;4031;49.758;6.120;2022-07-22T13:24:48;7.27;;;5.80;;
7971;SDS011;4031;49.758;6.120;2022-07-22T13:27:14;5.27;;;4.70;;
7971;SDS011;4031;49.758;6.120;2022-07-22T13:29:40;4.90;;;4.43;;
7971;SDS011;4031;49.758;6.120;2022-07-22T13:32:06;5.20;;;4.70;;
7971;SDS011;4031;49.758;6.120;2022-07-22T13:34:32;5.03;;;4.53;;
7971;SDS011;4031;49.758;6.120;2022-07-22T13:36:57;5.30;;;4.73;;
7971;SDS011;4031;49.758;6.120;2022-07-22T13:39:25;4.70;;;4.30;;
7971;SDS011;4031;49.758;6.120;2022-07-22T13:41:51;5.40;;;5.00;;
7971;SDS011;4031;49.758;6.120;2022-07-22T13:44:16;5.37;;;4.57;;
7971;SDS011;4031;49.758;6.120;2022-07-22T13:46:42;5.40;;;4.90;;
7971;SDS011;4031;49.758;6.120;2022-07-22T13:49:08;5.50;;;5.00;;
7971;SDS011;4031;49.758;6.120;2022-07-22T13:51:34;5.77;;;5.27;;
7971;SDS011;4031;49.758;6.120;2022-07-22T13:54:00;5.90;;;5.27;;
7971;SDS011;4031;49.758;6.120;2022-07-22T13:56:25;5.43;;;4.77;;
7971;SDS011;4031;49.758;6.120;2022-07-22T13:58:51;6.33;;;5.23;;
7971;SDS011;4031;49.758;6.120;2022-07-22T14:01:17;5.70;;;5.30;;
7971;SDS011;4031;49.758;6.120;2022-07-22T14:03:43;4.70;;;4.30;;
7971;SDS011;4031;49.758;6.120;2022-07-22T14:06:09;4.93;;;4.50;;
7971;SDS011;4031;49.758;6.120;2022-07-22T14:08:34;5.80;;;5.30;;
7971;SDS011;4031;49.758;6.120;2022-07-22T14:11:01;5.83;;;5.33;;
7971;SDS011;4031;49.758;6.120;2022-07-22T14:13:28;5.90;;;5.40;;
7971;SDS011;4031;49.758;6.120;2022-07-22T14:15:54;7.90;;;5.17;;
7971;SDS011;4031;49.758;6.120;2022-07-22T14:18:20;5.80;;;5.30;;
7971;SDS011;4031;49.758;6.120;2022-07-22T14:20:47;5.27;;;4.77;;
7971;SDS011;4031;49.758;6.120;2022-07-22T14:23:12;6.00;;;5.50;;
7971;SDS011;4031;49.758;6.120;2022-07-22T14:25:40;5.80;;;5.30;;
7971;SDS011;4031;49.758;6.120;2022-07-22T14:28:06;5.20;;;4.70;;
7971;SDS011;4031;49.758;6.120;2022-07-22T14:30:32;8.30;;;5.80;;
7971;SDS011;4031;49.758;6.120;2022-07-22T14:32:59;5.90;;;4.70;;
7971;SDS011;4031;49.758;6.120;2022-07-22T14:35:25;6.90;;;4.90;;
7971;SDS011;4031;49.758;6.120;2022-07-22T14:37:51;7.10;;;5.30;;
7971;SDS011;4031;49.758;6.120;2022-07-22T14:40:17;6.00;;;5.40;;
7971;SDS011;4031;49.758;6.120;2022-07-22T14:42:43;5.83;;;5.07;;
7971;SDS011;4031;49.758;6.120;2022-07-22T14:45:09;6.47;;;5.03;;
7971;SDS011;4031;49.758;6.120;2022-07-22T14:47:36;5.60;;;5.10;;
7971;SDS011;4031;49.758;6.120;2022-07-22T14:50:03;5.33;;;4.93;;
7971;SDS011;4031;49.758;6.120;2022-07-22T14:52:30;5.97;;;5.47;;
7971;SDS011;4031;49.758;6.120;2022-07-22T14:54:56;5.23;;;4.73;;
7971;SDS011;4031;49.758;6.120;2022-07-22T14:57:22;7.27;;;5.93;;
7971;SDS011;4031;49.758;6.120;2022-07-22T14:59:47;5.80;;;5.30;;
7971;SDS011;4031;49.758;6.120;2022-07-22T15:02:13;6.50;;;5.63;;
7971;SDS011;4031;49.758;6.120;2022-07-22T15:04:39;6.20;;;5.63;;
7971;SDS011;4031;49.758;6.120;2022-07-22T15:07:05;14.20;;;6.00;;
7971;SDS011;4031;49.758;6.120;2022-07-22T15:09:31;5.90;;;5.40;;
7971;SDS011;4031;49.758;6.120;2022-07-22T15:11:56;5.50;;;5.00;;
7971;SDS011;4031;49.758;6.120;2022-07-22T15:14:22;6.00;;;5.30;;
7971;SDS011;4031;49.758;6.120;2022-07-22T15:16:48;5.70;;;5.30;;
7971;SDS011;4031;49.758;6.120;2022-07-22T15:19:14;6.70;;;6.03;;
7971;SDS011;4031;49.758;6.120;2022-07-22T15:21:39;5.80;;;5.20;;
7971;SDS011;4031;49.758;6.120;2022-07-22T15:24:05;6.10;;;5.50;;
7971;SDS011;4031;49.758;6.120;2022-07-22T15:26:31;6.60;;;6.00;;
7971;SDS011;4031;49.758;6.120;2022-07-22T15:28:57;7.00;;;5.27;;